createdAt,value
2022-09-15T00:01:56.769Z,91.90
2022-09-15T00:04:26.114Z,91.80
2022-09-15T00:06:55.416Z,91.80
2022-09-15T00:09:24.644Z,91.80
2022-09-15T00:11:53.921Z,91.80
2022-09-15T00:14:24.111Z,91.70
2022-09-15T00:16:53.351Z,91.70
2022-09-15T00:19:22.568Z,91.60
2022-09-15T00:21:51.864Z,91.60
2022-09-15T00:24:21.098Z,91.60
2022-09-15T00:26:50.372Z,91.60
2022-09-15T00:29:19.649Z,91.60
2022-09-15T00:31:48.890Z,91.50
2022-09-15T00:34:18.464Z,91.50
2022-09-15T00:36:47.778Z,91.40
2022-09-15T00:39:17.206Z,91.40
2022-09-15T00:41:46.447Z,91.40
2022-09-15T00:44:36.449Z,91.50
2022-09-15T00:47:19.255Z,91.60
2022-09-15T00:49:58.995Z,91.50
2022-09-15T00:52:39.279Z,91.60
2022-09-15T00:55:23.067Z,91.50
2022-09-15T00:58:18.880Z,91.50
2022-09-15T01:01:00.612Z,91.40
2022-09-15T01:03:33.352Z,91.40
2022-09-15T01:06:39.341Z,91.50
2022-09-15T01:09:30.969Z,91.50
2022-09-15T01:12:01.352Z,91.40
2022-09-15T01:14:31.937Z,91.60
2022-09-15T01:17:12.350Z,91.60
2022-09-15T01:20:18.234Z,91.70
2022-09-15T01:23:21.899Z,91.80
2022-09-15T01:26:25.354Z,91.90
2022-09-15T01:29:21.864Z,91.90
2022-09-15T01:32:21.460Z,91.90
2022-09-15T01:35:03.112Z,91.80
2022-09-15T01:37:42.380Z,91.80
2022-09-15T01:40:15.231Z,91.80
2022-09-15T01:42:48.396Z,91.80
2022-09-15T01:45:30.046Z,91.80
2022-09-15T01:48:03.473Z,91.90
2022-09-15T01:50:47.286Z,92.00
2022-09-15T01:53:20.714Z,92.10
2022-09-15T01:56:10.275Z,92.20
2022-09-15T01:58:41.458Z,92.30
2022-09-15T02:01:22.512Z,92.40
2022-09-15T02:04:10.701Z,92.30
2022-09-15T02:07:16.450Z,92.20
2022-09-15T02:09:59.708Z,92.10
2022-09-15T02:12:47.847Z,92.00
2022-09-15T02:15:29.139Z,91.90
2022-09-15T02:18:00.444Z,92.00
2022-09-15T02:20:53.113Z,92.00
2022-09-15T02:23:35.356Z,91.90
2022-09-15T02:26:19.680Z,91.80
2022-09-15T02:28:50.811Z,91.80
2022-09-15T02:31:25.109Z,91.80
2022-09-15T02:34:29.426Z,91.80
2022-09-15T02:37:00.023Z,91.70
2022-09-15T02:39:40.506Z,91.70
2022-09-15T02:42:10.627Z,91.80
2022-09-15T02:44:39.839Z,91.80
2022-09-15T02:47:09.043Z,91.70
2022-09-15T02:49:38.264Z,91.60
2022-09-15T02:52:07.672Z,91.70
2022-09-15T02:54:36.893Z,91.60
2022-09-15T02:57:06.813Z,91.60
2022-09-15T02:59:54.984Z,91.50
2022-09-15T03:02:24.960Z,91.40
2022-09-15T03:04:54.257Z,91.50
2022-09-15T03:07:24.999Z,91.50
2022-09-15T03:09:54.782Z,91.40
2022-09-15T03:12:24.800Z,91.30
2022-09-15T03:14:54.010Z,91.30
2022-09-15T03:17:23.198Z,91.40
2022-09-15T03:19:52.592Z,91.40
2022-09-15T03:22:21.791Z,91.30
2022-09-15T03:24:51.941Z,91.20
2022-09-15T03:27:21.168Z,91.20
2022-09-15T03:29:50.713Z,91.20
2022-09-15T03:32:19.980Z,91.10
2022-09-15T03:34:49.224Z,91.20
2022-09-15T03:37:18.706Z,91.20
2022-09-15T03:39:49.128Z,91.20
2022-09-15T03:42:18.441Z,91.30
2022-09-15T03:44:47.849Z,91.30
2022-09-15T03:47:17.197Z,91.50
2022-09-15T03:49:46.461Z,91.80
2022-09-15T03:52:15.654Z,91.70
2022-09-15T03:54:44.850Z,91.80
2022-09-15T03:57:14.023Z,91.80
2022-09-15T03:59:43.267Z,91.90
2022-09-15T04:02:12.580Z,92.00
2022-09-15T04:04:41.924Z,92.10
2022-09-15T04:07:11.192Z,92.10
2022-09-15T04:09:40.417Z,92.10
2022-09-15T04:12:11.005Z,92.10
2022-09-15T04:14:40.293Z,92.10
2022-09-15T04:17:10.849Z,92.00
2022-09-15T04:19:40.728Z,92.00
2022-09-15T04:22:13.174Z,92.00
2022-09-15T04:24:44.970Z,92.00
2022-09-15T04:27:15.788Z,92.00
2022-09-15T04:29:45.496Z,92.10
2022-09-15T04:32:14.732Z,92.20
2022-09-15T04:34:43.965Z,92.20
2022-09-15T04:37:13.223Z,92.30
2022-09-15T04:39:42.566Z,92.20
2022-09-15T04:42:11.756Z,92.40
2022-09-15T04:44:41.338Z,92.40
2022-09-15T04:47:10.884Z,92.50
2022-09-15T04:49:40.248Z,92.50
2022-09-15T04:52:09.918Z,92.50
2022-09-15T04:54:39.382Z,92.60
2022-09-15T04:57:09.593Z,92.50
2022-09-15T04:59:38.874Z,92.40
2022-09-15T05:02:08.085Z,92.50
2022-09-15T05:04:37.315Z,92.50
2022-09-15T05:07:06.574Z,92.60
2022-09-15T05:09:35.819Z,92.70
2022-09-15T05:12:05.583Z,92.60
2022-09-15T05:14:34.828Z,92.60
2022-09-15T05:17:04.056Z,92.50
2022-09-15T05:19:34.076Z,92.40
2022-09-15T05:22:03.336Z,92.20
2022-09-15T05:24:32.581Z,92.10
2022-09-15T05:27:01.797Z,91.90
2022-09-15T05:29:31.193Z,91.80
2022-09-15T05:32:00.501Z,91.50
2022-09-15T05:34:29.698Z,91.40
2022-09-15T05:36:58.907Z,91.20
2022-09-15T05:39:28.578Z,91.00
2022-09-15T05:41:58.046Z,91.00
2022-09-15T05:44:27.252Z,90.80
2022-09-15T05:46:56.644Z,90.80
2022-09-15T05:49:26.015Z,90.80
2022-09-15T05:51:55.653Z,90.70
2022-09-15T05:54:24.853Z,90.60
2022-09-15T05:56:54.132Z,90.50
2022-09-15T05:59:23.490Z,90.40
2022-09-15T06:01:52.832Z,90.40
2022-09-15T06:04:22.064Z,90.20
2022-09-15T06:06:51.308Z,90.10
2022-09-15T06:09:20.629Z,89.90
2022-09-15T06:11:50.034Z,89.70
2022-09-15T06:14:19.298Z,89.50
2022-09-15T06:16:48.494Z,89.00
2022-09-15T06:19:18.047Z,88.40
2022-09-15T06:21:47.601Z,87.80
2022-09-15T06:24:16.976Z,87.20
2022-09-15T06:26:46.290Z,85.90
2022-09-15T06:29:15.511Z,85.20
2022-09-15T06:31:44.860Z,84.50
2022-09-15T06:34:14.104Z,84.00
2022-09-15T06:36:43.546Z,83.70
2022-09-15T06:39:13.542Z,83.60
2022-09-15T06:42:01.273Z,82.70
2022-09-15T06:44:31.565Z,82.10
2022-09-15T06:47:01.250Z,81.80
2022-09-15T06:49:31.389Z,81.60
2022-09-15T06:52:02.579Z,80.70
2022-09-15T06:54:31.890Z,80.20
2022-09-15T06:57:01.106Z,79.40
2022-09-15T06:59:30.443Z,78.70
2022-09-15T07:02:04.754Z,78.20
2022-09-15T07:04:38.129Z,77.90
2022-09-15T07:07:07.343Z,76.70
2022-09-15T07:09:40.955Z,75.90
2022-09-15T07:12:10.680Z,75.00
2022-09-15T07:14:39.902Z,74.10
2022-09-15T07:17:09.212Z,74.40
2022-09-15T07:19:38.670Z,73.70
2022-09-15T07:22:07.901Z,72.90
2022-09-15T07:24:37.233Z,71.70
2022-09-15T07:27:08.335Z,70.50
2022-09-15T07:29:38.854Z,69.80
2022-09-15T07:32:08.197Z,69.00
2022-09-15T07:34:37.430Z,69.60
2022-09-15T07:37:07.486Z,70.40
2022-09-15T07:39:36.795Z,70.60
2022-09-15T07:42:06.138Z,71.20
2022-09-15T07:44:35.703Z,71.20
2022-09-15T07:47:05.081Z,70.10
2022-09-15T07:49:34.393Z,69.80
2022-09-15T07:52:03.656Z,69.20
2022-09-15T07:54:32.988Z,68.10
2022-09-15T07:57:02.636Z,67.20
2022-09-15T07:59:31.917Z,66.80
2022-09-15T08:02:01.260Z,66.60
2022-09-15T08:04:30.599Z,66.80
2022-09-15T08:06:59.838Z,66.30
2022-09-15T08:09:29.114Z,65.70
2022-09-15T08:11:58.315Z,64.80
2022-09-15T08:14:28.168Z,64.10
2022-09-15T08:17:01.108Z,63.20
2022-09-15T08:19:33.140Z,63.00
2022-09-15T08:22:02.933Z,62.50
2022-09-15T08:24:32.196Z,62.40
2022-09-15T08:27:01.384Z,62.20
2022-09-15T08:29:31.097Z,62.60
2022-09-15T08:32:00.646Z,62.60
2022-09-15T08:34:30.281Z,62.60
2022-09-15T08:36:59.474Z,62.80
2022-09-15T08:39:28.817Z,62.40
2022-09-15T08:42:01.181Z,62.50
2022-09-15T08:44:49.682Z,63.20
2022-09-15T08:47:33.932Z,63.90
2022-09-15T08:50:43.519Z,63.40
2022-09-15T08:53:21.961Z,63.40
2022-09-15T08:55:59.685Z,63.60
2022-09-15T08:58:32.436Z,63.60
2022-09-15T09:01:35.070Z,63.10
2022-09-15T09:04:36.541Z,63.20
2022-09-15T09:07:23.772Z,62.90
2022-09-15T09:10:20.017Z,62.10
2022-09-15T09:13:09.861Z,61.00
2022-09-15T09:15:54.215Z,60.60
2022-09-15T09:18:51.017Z,60.20
2022-09-15T09:21:29.519Z,58.10
2022-09-15T09:24:01.882Z,58.30
2022-09-15T09:26:35.398Z,58.90
2022-09-15T09:29:36.170Z,59.30
2022-09-15T09:32:21.699Z,59.00
2022-09-15T09:35:09.055Z,58.30
2022-09-15T09:37:38.544Z,57.90
2022-09-15T09:40:13.796Z,57.70
2022-09-15T09:42:44.769Z,57.60
2022-09-15T09:45:19.675Z,57.60
2022-09-15T09:47:49.389Z,57.50
2022-09-15T09:50:44.798Z,57.90
2022-09-15T09:53:36.637Z,58.40
2022-09-15T09:56:27.019Z,57.70
2022-09-15T09:58:56.621Z,57.70
2022-09-15T10:01:26.562Z,56.80
2022-09-15T10:04:19.522Z,56.90
2022-09-15T10:06:49.317Z,56.60
2022-09-15T10:09:19.870Z,56.30
2022-09-15T10:11:54.174Z,56.20
2022-09-15T10:14:41.505Z,54.90
2022-09-15T10:17:41.608Z,54.40
2022-09-15T10:20:35.704Z,54.70
2022-09-15T10:23:21.827Z,55.80
2022-09-15T10:25:59.399Z,56.50
2022-09-15T10:28:29.360Z,57.30
2022-09-15T10:31:26.686Z,57.10
2022-09-15T10:33:55.938Z,56.50
2022-09-15T10:36:34.015Z,56.30
2022-09-15T10:39:06.239Z,55.80
2022-09-15T10:41:52.784Z,55.50
2022-09-15T10:44:37.954Z,55.20
2022-09-15T10:47:55.067Z,55.70
2022-09-15T10:50:32.207Z,56.00
2022-09-15T10:53:22.307Z,56.20
2022-09-15T10:55:54.362Z,56.00
2022-09-15T10:58:45.862Z,56.20
2022-09-15T11:01:28.679Z,56.40
2022-09-15T11:04:31.027Z,57.00
2022-09-15T11:07:17.909Z,56.80
2022-09-15T11:10:03.200Z,56.30
2022-09-15T11:13:44.098Z,55.70
2022-09-15T11:16:54.485Z,55.50
2022-09-15T11:19:58.627Z,55.90
2022-09-15T11:22:48.726Z,56.10
2022-09-15T11:25:26.438Z,56.50
2022-09-15T11:28:15.579Z,56.00
2022-09-15T11:31:02.458Z,54.30
2022-09-15T11:33:41.809Z,53.70
2022-09-15T11:36:20.596Z,53.00
2022-09-15T11:39:04.896Z,52.20
2022-09-15T11:41:49.696Z,52.70
2022-09-15T11:44:32.994Z,52.80
2022-09-15T11:48:04.021Z,53.50
2022-09-15T11:50:39.362Z,54.20
2022-09-15T11:53:17.186Z,53.80
2022-09-15T11:56:16.138Z,53.00
2022-09-15T11:59:03.844Z,52.60
2022-09-15T12:01:49.619Z,52.60
2022-09-15T12:04:28.882Z,52.30
2022-09-15T12:07:14.549Z,52.70
2022-09-15T12:09:44.252Z,52.30
2022-09-15T12:12:18.806Z,53.30
2022-09-15T12:14:52.797Z,54.00
2022-09-15T12:17:35.344Z,54.80
2022-09-15T12:20:28.481Z,55.40
2022-09-15T12:23:35.009Z,55.50
2022-09-15T12:26:20.207Z,55.50
2022-09-15T12:28:58.593Z,54.70
2022-09-15T12:31:31.211Z,54.70
2022-09-15T12:34:24.763Z,55.00
2022-09-15T12:37:15.320Z,55.10
2022-09-15T12:39:47.195Z,55.20
2022-09-15T12:42:31.678Z,55.70
2022-09-15T12:45:33.316Z,55.80
2022-09-15T12:48:19.012Z,55.50
2022-09-15T12:51:04.995Z,54.70
2022-09-15T12:53:41.661Z,54.50
2022-09-15T12:56:27.604Z,54.80
2022-09-15T12:59:06.597Z,55.40
2022-09-15T13:01:57.651Z,56.20
2022-09-15T13:04:42.453Z,56.80
2022-09-15T13:07:18.591Z,57.30
2022-09-15T13:09:59.974Z,58.00
2022-09-15T13:12:41.243Z,58.60
2022-09-15T13:15:16.278Z,59.70
2022-09-15T13:17:47.740Z,60.50
2022-09-15T13:20:26.901Z,61.40
2022-09-15T13:22:57.891Z,62.30
2022-09-15T13:25:30.489Z,63.00
2022-09-15T13:28:03.800Z,63.60
2022-09-15T13:30:52.825Z,64.30
2022-09-15T13:38:21.248Z,66.60
2022-09-15T13:41:18.577Z,67.70
2022-09-15T13:44:39.795Z,67.40
2022-09-15T13:47:33.608Z,66.60
2022-09-15T13:50:25.866Z,65.00
2022-09-15T13:53:33.778Z,63.70
2022-09-15T13:56:09.155Z,61.30
2022-09-15T13:59:11.512Z,61.10
2022-09-15T14:01:38.918Z,62.30
2022-09-15T14:04:17.171Z,62.90
2022-09-15T14:06:51.196Z,63.80
2022-09-15T14:09:44.739Z,64.30
2022-09-15T14:12:16.992Z,64.70
2022-09-15T14:14:54.729Z,64.80
2022-09-15T14:17:28.762Z,65.00
2022-09-15T14:20:00.988Z,65.10
2022-09-15T14:22:34.721Z,65.10
2022-09-15T14:25:16.851Z,65.20
2022-09-15T14:27:50.789Z,65.40
2022-09-15T14:30:32.154Z,65.80
2022-09-15T14:33:02.902Z,65.30
2022-09-15T14:35:37.208Z,65.20
2022-09-15T14:38:06.506Z,64.90
2022-09-15T14:40:38.808Z,64.70
2022-09-15T14:43:36.456Z,64.30
2022-09-15T14:46:18.525Z,64.10
2022-09-15T14:48:47.761Z,63.60
2022-09-15T14:51:28.672Z,63.60
2022-09-15T14:54:01.211Z,63.60
2022-09-15T14:56:36.968Z,63.40
2022-09-15T14:59:15.773Z,63.40
2022-09-15T15:02:22.015Z,63.40
2022-09-15T15:05:23.342Z,63.40
2022-09-15T15:07:55.381Z,63.40
2022-09-15T15:10:35.717Z,63.60
2022-09-15T15:13:12.910Z,63.60
2022-09-15T15:15:43.698Z,63.60
2022-09-15T15:18:39.747Z,63.70
2022-09-15T15:21:43.633Z,63.90
2022-09-15T15:24:12.824Z,64.10
2022-09-15T15:26:45.456Z,64.20
2022-09-15T15:29:40.879Z,64.40
2022-09-15T15:32:23.062Z,64.50
2022-09-15T15:35:01.470Z,64.50
2022-09-15T15:37:34.067Z,64.80
2022-09-15T15:40:07.527Z,64.90
2022-09-15T15:42:38.258Z,65.00
2022-09-15T15:45:32.789Z,65.20
2022-09-15T15:48:04.352Z,65.40
2022-09-15T15:50:33.682Z,65.40
2022-09-15T15:53:02.964Z,65.30
2022-09-15T15:55:42.414Z,65.00
2022-09-15T15:58:15.556Z,64.90
2022-09-15T16:00:52.927Z,64.50
2022-09-15T16:03:24.618Z,64.60
2022-09-15T16:05:59.439Z,64.50
2022-09-15T16:08:33.341Z,64.30
2022-09-15T16:11:03.469Z,64.30
2022-09-15T16:13:32.792Z,64.40
2022-09-15T16:16:02.859Z,64.60
2022-09-15T16:18:32.150Z,64.90
2022-09-15T16:21:01.541Z,65.20
2022-09-15T16:23:31.701Z,65.60
2022-09-15T16:26:05.583Z,66.00
2022-09-15T16:28:34.796Z,66.40
2022-09-15T16:31:04.536Z,66.90
2022-09-15T16:33:37.959Z,67.30
2022-09-15T16:36:13.376Z,67.60
2022-09-15T16:38:43.608Z,68.00
2022-09-15T16:41:16.269Z,68.50
2022-09-15T16:43:47.013Z,68.90
2022-09-15T16:46:17.186Z,69.30
2022-09-15T16:48:48.988Z,69.70
2022-09-15T16:51:28.912Z,70.10
2022-09-15T16:54:00.512Z,70.40
2022-09-15T16:56:29.822Z,70.50
2022-09-15T16:59:00.524Z,70.60
2022-09-15T17:01:30.240Z,70.80
2022-09-15T17:03:59.676Z,71.00
2022-09-15T17:06:28.943Z,71.40
2022-09-15T17:08:58.181Z,71.60
2022-09-15T17:11:29.343Z,71.80
2022-09-15T17:13:58.655Z,71.90
2022-09-15T17:16:28.019Z,72.00
2022-09-15T17:18:57.372Z,72.20
2022-09-15T17:21:27.258Z,72.20
2022-09-15T17:23:56.420Z,72.30
2022-09-15T17:26:30.486Z,72.40
2022-09-15T17:29:00.597Z,72.70
2022-09-15T17:31:29.966Z,73.10
2022-09-15T17:33:59.319Z,73.20
2022-09-15T17:36:28.611Z,73.40
2022-09-15T17:38:57.783Z,73.30
2022-09-15T17:41:27.028Z,73.60
2022-09-15T17:43:56.423Z,73.80
2022-09-15T17:46:25.638Z,73.80
2022-09-15T17:48:54.878Z,73.70
2022-09-15T17:51:25.188Z,73.80
2022-09-15T17:53:55.073Z,73.80
2022-09-15T17:56:24.317Z,74.00
2022-09-15T17:58:53.711Z,74.20
2022-09-15T18:01:23.350Z,74.30
2022-09-15T18:03:52.726Z,74.40
2022-09-15T18:06:21.921Z,74.50
2022-09-15T18:08:51.195Z,74.40
2022-09-15T18:11:21.310Z,74.50
2022-09-15T18:13:50.511Z,74.70
2022-09-15T18:16:19.997Z,74.80
2022-09-15T18:18:50.208Z,74.70
2022-09-15T18:21:28.714Z,74.60
2022-09-15T18:23:58.587Z,74.60
2022-09-15T18:26:27.827Z,74.40
2022-09-15T18:28:57.157Z,74.30
2022-09-15T18:31:26.646Z,74.30
2022-09-15T18:33:55.913Z,74.30
2022-09-15T18:36:25.176Z,74.30
2022-09-15T18:38:54.694Z,74.40
2022-09-15T18:41:23.957Z,74.40
2022-09-15T18:43:53.371Z,74.30
2022-09-15T18:46:22.928Z,74.40
2022-09-15T18:48:52.423Z,74.60
2022-09-15T18:51:29.201Z,75.10
2022-09-15T18:54:04.170Z,75.40
2022-09-15T18:56:33.411Z,75.60
2022-09-15T18:59:02.791Z,75.80
2022-09-15T19:01:34.628Z,76.20
2022-09-15T19:04:04.068Z,76.80
2022-09-15T19:06:33.284Z,76.80
2022-09-15T19:09:02.572Z,77.10
2022-09-15T19:11:31.872Z,77.20
2022-09-15T19:14:01.237Z,77.20
2022-09-15T19:16:53.744Z,77.00
2022-09-15T19:19:23.522Z,76.70
2022-09-15T19:21:52.802Z,75.90
2022-09-15T19:24:22.182Z,75.50
2022-09-15T19:26:51.408Z,75.20
2022-09-15T19:29:20.590Z,75.10
2022-09-15T19:31:49.824Z,75.00
2022-09-15T19:34:19.035Z,74.80
2022-09-15T19:36:48.243Z,74.60
2022-09-15T19:39:17.480Z,74.50
2022-09-15T19:41:46.820Z,74.30
2022-09-15T19:44:16.278Z,74.40
2022-09-15T19:46:45.589Z,74.30
2022-09-15T19:49:15.284Z,74.50
2022-09-15T19:51:44.764Z,75.20
2022-09-15T19:54:14.082Z,75.00
2022-09-15T19:56:43.409Z,75.10
2022-09-15T19:59:12.762Z,75.00
2022-09-15T20:01:42.031Z,75.10
2022-09-15T20:06:59.944Z,75.10
2022-09-15T20:09:29.139Z,74.70
2022-09-15T20:11:59.251Z,74.50
2022-09-15T20:14:29.376Z,74.30
2022-09-15T20:17:01.179Z,74.20
2022-09-15T20:19:30.942Z,74.20
2022-09-15T20:22:00.248Z,74.20
2022-09-15T20:24:29.580Z,74.40
2022-09-15T20:26:59.305Z,74.60
2022-09-15T20:29:28.854Z,74.60
2022-09-15T20:31:58.166Z,74.80
2022-09-15T20:34:27.765Z,75.20
2022-09-15T20:36:57.093Z,75.50
2022-09-15T20:39:26.439Z,75.90
2022-09-15T20:41:56.254Z,76.20
2022-09-15T20:44:25.707Z,76.30
2022-09-15T20:46:54.950Z,76.50
2022-09-15T20:49:24.379Z,76.50
2022-09-15T20:51:53.628Z,76.40
2022-09-15T20:54:22.872Z,76.50
2022-09-15T20:56:52.169Z,76.50
2022-09-15T20:59:21.516Z,76.50
2022-09-15T21:01:50.830Z,76.50
2022-09-15T21:04:20.332Z,76.30
2022-09-15T21:06:50.160Z,76.00
2022-09-15T21:09:19.465Z,75.90
2022-09-15T21:11:52.810Z,75.70
2022-09-15T21:14:22.734Z,75.60
2022-09-15T21:16:52.026Z,75.30
2022-09-15T21:19:21.283Z,75.30
2022-09-15T21:21:50.512Z,75.10
2022-09-15T21:24:21.357Z,74.90
2022-09-15T21:27:10.106Z,75.00
2022-09-15T21:29:39.446Z,74.80
2022-09-15T21:32:08.669Z,74.80
2022-09-15T21:34:38.261Z,74.90
2022-09-15T21:37:07.502Z,75.10
2022-09-15T21:39:36.837Z,75.10
2022-09-15T21:42:06.464Z,75.10
2022-09-15T21:44:35.755Z,75.20
2022-09-15T21:47:05.201Z,75.30
2022-09-15T21:49:34.409Z,75.40
2022-09-15T21:52:03.715Z,75.80
2022-09-15T21:54:32.951Z,76.10
2022-09-15T21:57:02.306Z,76.20
2022-09-15T21:59:31.698Z,76.50
2022-09-15T22:02:00.998Z,76.60
2022-09-15T22:04:30.555Z,76.60
2022-09-15T22:06:59.712Z,76.60
2022-09-15T22:09:28.976Z,76.60
2022-09-15T22:11:58.264Z,76.50
2022-09-15T22:14:27.488Z,76.40
2022-09-15T22:16:56.736Z,76.30
2022-09-15T22:19:26.700Z,76.10
2022-09-15T22:21:55.941Z,76.00
2022-09-15T22:24:25.237Z,76.10
2022-09-15T22:26:54.445Z,76.00
2022-09-15T22:29:23.990Z,75.90
2022-09-15T22:31:53.264Z,75.90
2022-09-15T22:34:22.494Z,75.70
2022-09-15T22:36:51.722Z,75.60
2022-09-15T22:39:21.010Z,75.40
2022-09-15T22:41:50.231Z,75.30
2022-09-15T22:44:20.848Z,75.30
2022-09-15T22:46:51.380Z,75.30
2022-09-15T22:49:20.722Z,75.40
2022-09-15T22:51:49.900Z,75.50
2022-09-15T22:54:19.277Z,75.60
2022-09-15T22:56:48.531Z,75.60
2022-09-15T22:59:17.681Z,75.40
2022-09-15T23:01:47.453Z,75.40
2022-09-15T23:04:16.811Z,75.40
2022-09-15T23:06:46.146Z,75.20
2022-09-15T23:09:15.478Z,75.00
2022-09-15T23:11:44.703Z,74.90
2022-09-15T23:14:16.882Z,74.80
2022-09-15T23:16:46.244Z,74.80
2022-09-15T23:19:15.765Z,74.80
2022-09-15T23:21:45.016Z,74.80
2022-09-15T23:24:15.088Z,74.80
2022-09-15T23:26:44.341Z,74.60
2022-09-15T23:29:13.708Z,74.60
2022-09-15T23:31:43.000Z,74.50
2022-09-15T23:34:12.425Z,74.40
2022-09-15T23:36:41.673Z,74.40
2022-09-15T23:39:11.178Z,74.20
2022-09-15T23:41:41.318Z,74.20
2022-09-15T23:44:10.675Z,74.20
2022-09-15T23:46:40.137Z,74.20
2022-09-15T23:49:10.043Z,74.20
2022-09-15T23:51:39.255Z,74.50
2022-09-15T23:54:08.479Z,74.80
2022-09-15T23:56:37.755Z,74.90
2022-09-15T23:59:07.037Z,75.10
